Time;durP1;ratioP1;P1;durP2;ratioP2;P2;SDS_P1;SDS_P2;PMS_P1;PMS_P2;Temp;Humidity;BMP_temperature;BMP_pressure;BME280_temperature;BME280_humidity;BME280_pressure;Samples;Min_cycle;Max_cycle;Signal;HPM_P1;HPM_P2
2023/07/11 00:01:42;;;;;;;3.37;2.90;;;24.50;73.90;;;;;;5030893;28;20212;-70
2023/07/11 00:04:08;;;;;;;3.23;2.93;;;24.60;73.90;;;;;;5043486;28;20236;-71
2023/07/11 00:06:34;;;;;;;3.43;3.13;;;24.60;73.80;;;;;;5039702;28;20294;-71
2023/07/11 00:08:59;;;;;;;3.63;2.50;;;24.60;73.90;;;;;;5038487;28;20544;-71
2023/07/11 00:11:25;;;;;;;4.53;3.03;;;24.60;73.90;;;;;;5042534;28;20251;-72
2023/07/11 00:13:51;;;;;;;3.50;3.20;;;24.50;74.30;;;;;;5045794;28;20207;-72
2023/07/11 00:16:18;;;;;;;3.13;2.77;;;24.50;74.40;;;;;;5044735;28;20234;-72
2023/07/11 00:18:44;;;;;;;3.40;3.10;;;24.50;74.50;;;;;;5050227;28;20233;-71
2023/07/11 00:21:10;;;;;;;2.73;2.60;;;24.40;74.50;;;;;;5026812;28;20875;-72
2023/07/11 00:23:35;;;;;;;3.87;3.20;;;24.40;74.80;;;;;;5033569;28;20469;-72
2023/07/11 00:26:02;;;;;;;5.37;3.07;;;24.30;75.00;;;;;;5028560;28;20243;-71
2023/07/11 00:28:27;;;;;;;3.03;2.83;;;24.30;75.10;;;;;;5045169;28;20223;-71
2023/07/11 00:30:54;;;;;;;3.40;3.10;;;23.80;76.10;;;;;;5043850;28;20612;-71
2023/07/11 00:33:20;;;;;;;3.47;3.17;;;23.80;76.40;;;;;;5032276;28;20917;-71
2023/07/11 00:35:52;;;;;;;3.30;3.00;;;23.90;76.30;;;;;;5034523;28;20224;-71
2023/07/11 00:38:18;;;;;;;3.87;3.50;;;24.10;76.10;;;;;;5035838;28;20226;-71
2023/07/11 00:40:47;;;;;;;3.30;3.00;;;24.10;75.70;;;;;;5034404;28;20450;-71
2023/07/11 00:43:15;;;;;;;2.83;2.63;;;24.10;76.10;;;;;;5033907;28;20476;-70
2023/07/11 00:46:09;;;;;;;3.80;3.40;;;24.10;76.10;;;;;;5046638;28;20517;-70
2023/07/11 00:48:38;;;;;;;3.23;2.93;;;24.00;76.30;;;;;;5044903;28;20455;-72
2023/07/11 00:51:07;;;;;;;3.60;2.80;;;23.90;76.50;;;;;;5056359;28;20491;-72
2023/07/11 00:53:33;;;;;;;2.90;2.70;;;23.90;76.90;;;;;;5045169;28;20458;-71
2023/07/11 00:56:04;;;;;;;3.50;3.20;;;23.80;76.80;;;;;;5029055;28;20468;-71
2023/07/11 00:58:32;;;;;;;2.87;2.67;;;23.90;76.90;;;;;;5065080;28;20465;-71
2023/07/11 01:00:59;;;;;;;3.80;3.50;;;23.90;76.80;;;;;;5041362;28;20471;-71
2023/07/11 01:03:24;;;;;;;3.53;2.50;;;23.80;76.70;;;;;;5039797;28;20567;-71
2023/07/11 01:05:50;;;;;;;3.20;2.90;;;23.70;77.10;;;;;;5023980;28;21068;-71
2023/07/11 01:08:16;;;;;;;3.23;2.93;;;23.60;77.50;;;;;;5043499;28;20302;-71
2023/07/11 01:10:42;;;;;;;4.20;3.10;;;23.60;77.70;;;;;;5043486;28;20231;-70
2023/07/11 01:13:09;;;;;;;5.73;3.40;;;23.60;77.70;;;;;;5033350;28;20243;-71
2023/07/11 01:15:35;;;;;;;4.07;3.37;;;23.60;77.60;;;;;;5042792;28;20224;-71
2023/07/11 01:18:00;;;;;;;3.50;2.73;;;23.60;77.60;;;;;;5028861;28;20503;-71
2023/07/11 01:20:26;;;;;;;3.67;3.27;;;23.60;77.50;;;;;;5024517;28;20599;-70
2023/07/11 01:22:55;;;;;;;3.37;3.03;;;23.60;77.60;;;;;;5057381;28;20224;-70
2023/07/11 01:25:22;;;;;;;4.80;3.30;;;23.60;77.40;;;;;;5032634;28;20515;-71
2023/07/11 01:27:49;;;;;;;3.27;2.97;;;23.50;77.50;;;;;;5040324;28;20976;-71
2023/07/11 01:30:20;;;;;;;3.10;2.80;;;23.50;77.40;;;;;;5047697;28;20989;-71
2023/07/11 01:32:45;;;;;;;3.70;3.40;;;23.50;77.60;;;;;;5046010;28;20472;-71
2023/07/11 01:35:11;;;;;;;3.67;3.33;;;23.50;77.80;;;;;;5034347;28;20458;-71
2023/07/11 01:37:37;;;;;;;4.50;3.50;;;23.50;77.70;;;;;;5045812;28;20226;-70
2023/07/11 01:40:05;;;;;;;4.67;3.40;;;23.50;77.60;;;;;;5027421;28;20223;-71
2023/07/11 01:42:31;;;;;;;4.60;3.13;;;23.40;77.40;;;;;;5042771;28;20228;-71
2023/07/11 01:44:58;;;;;;;4.10;2.93;;;23.40;77.70;;;;;;5038928;28;21086;-73
2023/07/11 01:47:23;;;;;;;4.50;4.10;;;23.30;77.40;;;;;;5038192;28;20459;-71
2023/07/11 01:49:50;;;;;;;4.43;3.30;;;23.30;77.40;;;;;;5030976;28;20213;-71
2023/07/11 01:52:21;;;;;;;8.27;3.43;;;23.30;77.60;;;;;;5014680;28;20455;-72
2023/07/11 01:54:47;;;;;;;3.20;2.90;;;23.30;77.50;;;;;;5038639;28;20468;-72
2023/07/11 01:57:13;;;;;;;3.60;3.30;;;23.30;77.40;;;;;;5039708;28;20521;-69
2023/07/11 01:59:39;;;;;;;3.50;3.20;;;23.30;77.30;;;;;;5055353;28;20448;-69
2023/07/11 02:02:06;;;;;;;7.27;3.40;;;23.20;77.50;;;;;;5034913;28;20897;-71
2023/07/11 02:04:33;;;;;;;5.10;3.37;;;23.20;78.00;;;;;;5045716;28;20465;-68
2023/07/11 02:06:59;;;;;;;3.33;3.13;;;23.20;78.10;;;;;;5042590;28;20450;-71
2023/07/11 02:09:25;;;;;;;3.20;2.90;;;23.10;78.10;;;;;;5050404;28;20457;-72
2023/07/11 02:11:50;;;;;;;3.80;3.40;;;23.00;78.10;;;;;;5045099;28;20231;-71
2023/07/11 02:14:18;;;;;;;3.80;3.33;;;23.00;77.90;;;;;;5059716;28;20240;-71
2023/07/11 02:16:45;;;;;;;5.40;3.80;;;23.00;77.80;;;;;;5045756;28;20226;-71
2023/07/11 02:19:12;;;;;;;3.50;3.20;;;23.00;78.10;;;;;;5042166;28;21027;-71
2023/07/11 02:21:38;;;;;;;5.73;3.73;;;23.00;78.00;;;;;;5027220;28;20459;-70
2023/07/11 02:24:07;;;;;;;5.63;3.60;;;22.80;78.30;;;;;;5034914;28;20465;-70
2023/07/11 02:26:33;;;;;;;4.43;3.17;;;22.70;78.30;;;;;;5035661;28;20542;-71
2023/07/11 02:28:59;;;;;;;5.33;4.63;;;22.70;78.30;;;;;;5029856;28;20608;-72
2023/07/11 02:31:24;;;;;;;3.70;3.33;;;22.60;78.80;;;;;;5033915;28;20225;-71
2023/07/11 02:33:50;;;;;;;4.30;3.73;;;22.60;78.60;;;;;;5037194;28;20873;-70
2023/07/11 02:36:16;;;;;;;4.77;4.07;;;22.70;78.30;;;;;;5040086;28;20276;-70
2023/07/11 02:38:41;;;;;;;6.50;4.03;;;22.60;78.60;;;;;;5035948;28;20246;-71
2023/07/11 02:41:07;;;;;;;3.97;3.67;;;22.60;78.60;;;;;;5042203;28;20269;-71
2023/07/11 02:43:33;;;;;;;4.07;3.40;;;22.50;78.60;;;;;;5034572;28;20230;-71
2023/07/11 02:45:59;;;;;;;3.87;3.57;;;22.50;78.50;;;;;;5031263;28;20221;-71
2023/07/11 02:48:26;;;;;;;5.33;3.87;;;22.40;78.70;;;;;;5035025;28;20449;-70
2023/07/11 02:50:52;;;;;;;4.03;3.43;;;22.40;78.70;;;;;;5034645;28;20564;-71
2023/07/11 02:53:18;;;;;;;3.50;3.20;;;22.40;78.30;;;;;;5014960;28;20452;-71
2023/07/11 02:55:44;;;;;;;8.93;3.47;;;22.50;78.70;;;;;;5036683;28;20534;-72
2023/07/11 02:58:10;;;;;;;3.50;3.20;;;22.40;78.70;;;;;;5045199;28;20759;-71
2023/07/11 03:00:36;;;;;;;5.00;3.70;;;22.30;78.80;;;;;;5040104;28;20219;-73
2023/07/11 03:03:02;;;;;;;3.73;3.43;;;22.10;78.90;;;;;;5045780;28;20561;-71
2023/07/11 03:05:28;;;;;;;4.00;3.50;;;22.20;79.30;;;;;;5029764;28;20459;-71
2023/07/11 03:07:54;;;;;;;4.30;3.90;;;22.30;79.10;;;;;;5042091;28;20464;-72
2023/07/11 03:10:19;;;;;;;4.20;3.50;;;22.30;79.20;;;;;;5046357;28;20236;-71
2023/07/11 03:12:45;;;;;;;5.00;3.60;;;22.30;78.90;;;;;;5042635;28;20251;-70
2023/07/11 03:15:11;;;;;;;3.70;3.40;;;22.30;79.40;;;;;;5046645;28;20729;-72
2023/07/11 03:17:36;;;;;;;4.40;4.00;;;22.20;79.20;;;;;;5027390;28;20593;-70
2023/07/11 03:20:02;;;;;;;6.27;5.67;;;22.20;79.30;;;;;;5022797;28;20308;-72
2023/07/11 03:22:28;;;;;;;4.17;3.77;;;22.20;79.60;;;;;;5041006;28;20817;-72
2023/07/11 03:24:54;;;;;;;4.20;3.80;;;22.10;79.70;;;;;;5042446;28;20469;-73
2023/07/11 03:27:20;;;;;;;4.30;3.90;;;22.00;80.50;;;;;;5042827;28;20463;-71
2023/07/11 03:29:45;;;;;;;4.63;4.13;;;22.10;79.80;;;;;;5043662;28;20268;-72
2023/07/11 03:32:11;;;;;;;3.80;3.50;;;22.10;79.70;;;;;;5042679;28;20232;-72
2023/07/11 03:34:37;;;;;;;4.87;3.87;;;22.00;79.80;;;;;;5029957;28;20217;-72
2023/07/11 03:37:03;;;;;;;4.10;3.70;;;22.00;79.90;;;;;;5043815;28;20212;-72
2023/07/11 03:39:29;;;;;;;3.93;3.60;;;22.00;80.00;;;;;;5033327;28;20211;-72
2023/07/11 03:41:55;;;;;;;3.90;3.60;;;22.00;80.00;;;;;;5046939;28;20452;-72
2023/07/11 03:44:20;;;;;;;3.20;2.90;;;22.00;80.10;;;;;;5039713;28;20215;-72
2023/07/11 03:46:46;;;;;;;4.20;3.80;;;22.00;80.00;;;;;;5056668;28;20224;-72
2023/07/11 03:49:12;;;;;;;4.53;3.77;;;21.90;80.00;;;;;;5031579;28;20220;-72
2023/07/11 03:51:38;;;;;;;3.97;3.20;;;21.90;80.70;;;;;;5026115;28;20223;-72
2023/07/11 03:54:04;;;;;;;3.60;3.30;;;21.90;80.80;;;;;;5024144;28;20451;-72
2023/07/11 03:56:29;;;;;;;4.43;4.03;;;21.90;80.70;;;;;;5035533;28;20272;-72
2023/07/11 03:58:55;;;;;;;3.77;3.47;;;21.90;80.70;;;;;;5022642;28;20242;-72
2023/07/11 04:01:21;;;;;;;5.60;4.27;;;21.90;80.80;;;;;;5033811;28;20582;-72
2023/07/11 04:03:47;;;;;;;3.63;3.33;;;21.80;80.70;;;;;;5049204;28;20583;-72
2023/07/11 04:06:13;;;;;;;6.10;5.03;;;21.80;81.00;;;;;;5032865;28;20472;-72
2023/07/11 04:08:39;;;;;;;3.80;3.20;;;21.80;81.00;;;;;;5049786;28;20220;-71
2023/07/11 04:11:05;;;;;;;4.80;3.60;;;21.80;81.10;;;;;;5038442;28;20726;-72
2023/07/11 04:13:31;;;;;;;5.17;4.10;;;21.80;81.00;;;;;;5035688;28;20226;-71
2023/07/11 04:15:56;;;;;;;5.80;4.40;;;21.80;82.20;;;;;;5043148;28;20219;-72
2023/07/11 04:18:24;;;;;;;4.63;3.47;;;21.80;81.40;;;;;;5048576;28;20451;-72
2023/07/11 04:20:50;;;;;;;4.20;3.80;;;21.90;81.60;;;;;;5031640;28;20212;-72
2023/07/11 04:23:16;;;;;;;3.93;3.53;;;21.90;81.60;;;;;;5044373;28;20653;-72
2023/07/11 04:25:42;;;;;;;6.03;3.50;;;21.70;81.70;;;;;;5047474;28;20224;-72
2023/07/11 04:28:07;;;;;;;4.67;3.73;;;21.80;82.20;;;;;;5045770;28;20457;-72
2023/07/11 04:30:33;;;;;;;4.20;3.70;;;21.80;82.00;;;;;;5046498;28;20220;-70
2023/07/11 04:32:59;;;;;;;4.00;2.80;;;21.80;82.20;;;;;;5037142;28;20674;-70
2023/07/11 04:35:24;;;;;;;5.80;3.40;;;21.80;82.60;;;;;;5046103;28;20315;-71
2023/07/11 04:37:50;;;;;;;3.90;3.50;;;21.80;82.30;;;;;;5039732;28;20312;-70
2023/07/11 04:40:16;;;;;;;7.20;4.20;;;21.80;82.60;;;;;;5039388;28;20224;-70
2023/07/11 04:42:42;;;;;;;4.37;4.00;;;21.80;82.80;;;;;;5028979;28;20235;-70
2023/07/11 04:45:09;;;;;;;7.40;4.00;;;21.80;83.80;;;;;;5041550;28;20489;-70
2023/07/11 04:47:35;;;;;;;9.10;4.30;;;21.80;83.10;;;;;;5033994;28;20224;-70
2023/07/11 04:50:05;;;;;;;3.90;3.50;;;21.80;82.70;;;;;;5033456;28;20467;-70
2023/07/11 04:52:31;;;;;;;5.40;4.10;;;21.90;83.00;;;;;;5042611;28;20669;-69
2023/07/11 04:54:57;;;;;;;4.40;3.77;;;21.90;82.90;;;;;;5035010;28;20988;-70
2023/07/11 04:57:23;;;;;;;4.30;3.90;;;22.00;82.80;;;;;;5028516;28;20471;-70
2023/07/11 04:59:49;;;;;;;4.03;3.63;;;22.00;82.80;;;;;;5025673;28;20241;-69
2023/07/11 05:02:15;;;;;;;9.10;3.90;;;22.00;82.70;;;;;;5043276;28;20501;-70
2023/07/11 05:04:40;;;;;;;3.90;3.13;;;22.10;82.90;;;;;;5041023;28;20217;-71
2023/07/11 05:07:07;;;;;;;4.03;3.63;;;22.10;83.20;;;;;;5045273;28;20216;-70
2023/07/11 05:09:32;;;;;;;4.77;3.70;;;22.10;83.10;;;;;;5035988;28;20303;-72
2023/07/11 05:12:00;;;;;;;3.60;3.30;;;22.20;83.50;;;;;;5042201;28;20546;-69
2023/07/11 05:14:26;;;;;;;3.60;3.30;;;22.20;83.40;;;;;;5033130;28;20300;-70
2023/07/11 05:16:53;;;;;;;5.13;3.80;;;22.20;83.50;;;;;;5053894;28;20527;-71
2023/07/11 05:19:19;;;;;;;4.50;3.70;;;22.10;84.10;;;;;;5043134;28;21026;-70
2023/07/11 05:21:45;;;;;;;10.30;3.80;;;22.20;84.40;;;;;;5026409;28;20224;-69
2023/07/11 05:24:10;;;;;;;4.70;3.50;;;22.20;84.30;;;;;;5029264;28;20465;-71
2023/07/11 05:26:37;;;;;;;4.07;3.30;;;22.20;84.20;;;;;;5037738;28;20217;-69
2023/07/11 05:29:06;;;;;;;3.70;3.40;;;22.20;84.50;;;;;;5046390;28;20230;-72
2023/07/11 05:31:31;;;;;;;6.00;3.70;;;22.30;84.60;;;;;;5023134;28;20478;-71
2023/07/11 05:33:57;;;;;;;4.40;4.00;;;22.30;84.60;;;;;;5039558;28;20490;-71
2023/07/11 05:36:32;;;;;;;;;;;;;;;;;;;;;
2023/07/11 05:39:08;;;;;;;4.23;3.80;;;22.30;84.90;;;;;;5035356;28;20238;-72
2023/07/11 05:41:36;;;;;;;4.07;3.67;;;22.30;84.80;;;;;;5039941;28;20462;-70
2023/07/11 05:44:02;;;;;;;4.20;3.60;;;22.40;84.90;;;;;;5041808;28;20474;-71
2023/07/11 05:46:28;;;;;;;5.20;3.70;;;22.40;84.90;;;;;;5043460;28;20485;-71
2023/07/11 05:48:55;;;;;;;5.23;4.00;;;22.40;85.80;;;;;;5041291;28;20499;-71
2023/07/11 05:51:21;;;;;;;3.23;3.00;;;22.40;84.90;;;;;;5035713;28;20460;-72
2023/07/11 05:53:48;;;;;;;8.90;3.87;;;22.40;84.50;;;;;;5043236;28;20510;-72
2023/07/11 05:56:15;;;;;;;4.07;3.40;;;22.50;85.40;;;;;;5043623;28;20910;-71
2023/07/11 05:58:43;;;;;;;3.80;3.50;;;22.40;86.60;;;;;;5042210;28;20550;-72
2023/07/11 06:01:13;;;;;;;4.63;3.33;;;22.40;85.40;;;;;;5025020;28;20482;-72
2023/07/11 06:03:45;;;;;;;4.30;3.90;;;22.50;85.10;;;;;;5047322;28;20462;-71
2023/07/11 06:06:11;;;;;;;4.97;3.50;;;22.50;85.00;;;;;;5043233;28;20548;-71
2023/07/11 06:08:37;;;;;;;4.60;3.90;;;22.60;85.50;;;;;;5044511;28;21074;-72
2023/07/11 06:11:04;;;;;;;4.17;3.57;;;22.60;85.90;;;;;;5038348;28;20561;-71
2023/07/11 06:13:32;;;;;;;4.00;2.90;;;22.70;86.30;;;;;;5054938;28;20216;-71
2023/07/11 06:16:03;;;;;;;3.97;3.67;;;22.70;86.10;;;;;;5032783;28;20463;-72
2023/07/11 06:18:32;;;;;;;3.70;3.40;;;22.80;87.20;;;;;;5026474;28;20458;-72
2023/07/11 06:20:58;;;;;;;3.90;3.60;;;22.80;87.20;;;;;;5045639;28;20547;-71
2023/07/11 06:23:23;;;;;;;4.07;3.67;;;22.80;86.80;;;;;;5050028;28;20513;-73
2023/07/11 06:25:49;;;;;;;7.57;3.50;;;22.90;85.90;;;;;;5039562;28;20232;-72
2023/07/11 06:28:15;;;;;;;3.50;3.20;;;22.90;85.60;;;;;;5031012;28;20232;-71
2023/07/11 06:30:42;;;;;;;4.07;3.73;;;23.00;87.10;;;;;;5037622;28;20230;-72
2023/07/11 06:33:11;;;;;;;4.97;4.40;;;23.00;87.60;;;;;;5016561;28;20260;-72
2023/07/11 06:35:39;;;;;;;4.40;4.00;;;23.00;88.50;;;;;;5028710;28;20700;-70
2023/07/11 06:38:05;;;;;;;4.07;3.53;;;23.10;88.10;;;;;;5046480;28;21114;-70
2023/07/11 06:40:31;;;;;;;3.70;3.40;;;23.20;88.80;;;;;;5043618;28;20534;-73
2023/07/11 06:42:56;;;;;;;3.77;3.47;;;23.20;88.10;;;;;;5042521;28;20263;-72
2023/07/11 06:45:22;;;;;;;3.70;3.40;;;23.20;86.60;;;;;;5029016;28;20596;-74
2023/07/11 06:47:47;;;;;;;4.00;3.70;;;23.30;88.20;;;;;;5026021;28;20211;-71
2023/07/11 06:50:13;;;;;;;4.13;3.83;;;23.40;89.40;;;;;;5041548;28;20253;-72
2023/07/11 06:52:39;;;;;;;4.60;3.50;;;23.50;88.70;;;;;;5036546;28;20221;-72
2023/07/11 06:55:05;;;;;;;5.60;3.70;;;23.50;88.70;;;;;;5044453;28;20220;-72
2023/07/11 06:57:31;;;;;;;4.07;3.77;;;23.60;90.00;;;;;;5035515;28;20220;-72
2023/07/11 06:59:56;;;;;;;3.87;3.57;;;23.60;89.20;;;;;;5059115;28;20455;-73
2023/07/11 07:02:22;;;;;;;4.77;3.63;;;23.80;90.10;;;;;;5038140;28;20717;-72
2023/07/11 07:04:47;;;;;;;3.50;3.20;;;23.80;89.30;;;;;;5025284;28;20589;-72
2023/07/11 07:07:13;;;;;;;3.70;3.30;;;23.90;89.90;;;;;;5046276;28;20266;-72
2023/07/11 07:09:39;;;;;;;5.20;3.73;;;24.00;89.30;;;;;;5046533;28;20583;-72
2023/07/11 07:12:05;;;;;;;4.17;3.77;;;24.10;90.40;;;;;;5045190;28;20732;-72
2023/07/11 07:14:30;;;;;;;3.80;3.50;;;24.20;89.50;;;;;;5025001;28;20238;-72
2023/07/11 07:16:56;;;;;;;4.60;3.43;;;24.20;89.20;;;;;;5028171;28;20999;-72
2023/07/11 07:19:22;;;;;;;4.20;3.80;;;24.30;89.70;;;;;;5040391;28;20266;-72
2023/07/11 07:21:47;;;;;;;3.53;3.20;;;24.30;89.80;;;;;;5042176;28;20243;-72
2023/07/11 07:24:13;;;;;;;6.20;3.67;;;24.50;89.30;;;;;;5040100;28;20844;-71
2023/07/11 07:26:38;;;;;;;4.43;3.97;;;24.50;88.90;;;;;;5038250;28;20315;-72
2023/07/11 07:29:04;;;;;;;5.17;3.77;;;24.60;89.00;;;;;;5028966;28;20291;-71
2023/07/11 07:31:30;;;;;;;3.60;3.30;;;24.60;88.20;;;;;;5031141;28;20246;-72
2023/07/11 07:33:56;;;;;;;4.23;3.83;;;24.60;88.80;;;;;;5043098;28;20242;-71
2023/07/11 07:36:22;;;;;;;4.00;3.70;;;24.70;89.20;;;;;;5045131;28;20215;-70
2023/07/11 07:38:47;;;;;;;4.70;3.53;;;24.90;89.00;;;;;;5036849;28;20220;-71
2023/07/11 07:41:13;;;;;;;3.93;3.63;;;25.00;89.10;;;;;;5038763;28;20228;-72
2023/07/11 07:43:39;;;;;;;4.60;4.20;;;25.20;88.80;;;;;;5024486;28;20780;-71
2023/07/11 07:46:06;;;;;;;4.77;4.37;;;25.20;89.00;;;;;;5038459;28;20496;-71
2023/07/11 07:48:32;;;;;;;3.90;3.50;;;25.20;88.00;;;;;;5037175;28;20310;-72
2023/07/11 07:51:10;;;;;;;4.40;4.00;;;25.30;88.40;;;;;;5040168;28;20497;-71
2023/07/11 07:53:36;;;;;;;3.73;3.43;;;25.30;89.00;;;;;;5044612;28;20469;-72
2023/07/11 07:56:05;;;;;;;3.80;3.40;;;25.50;88.20;;;;;;5022431;28;20466;-72
2023/07/11 07:58:32;;;;;;;4.40;3.70;;;25.70;87.70;;;;;;5023048;28;20230;-71
2023/07/11 08:00:58;;;;;;;4.93;4.47;;;25.80;88.00;;;;;;5016262;28;20494;-72
2023/07/11 08:03:23;;;;;;;4.67;4.27;;;25.80;87.60;;;;;;5042354;28;20976;-72
2023/07/11 08:05:49;;;;;;;8.27;4.30;;;26.00;88.00;;;;;;5027491;28;20222;-72
2023/07/11 08:08:15;;;;;;;4.50;4.10;;;26.10;87.00;;;;;;5026261;28;20220;-72
2023/07/11 08:10:41;;;;;;;4.90;4.40;;;26.10;87.20;;;;;;5039301;28;20246;-71
2023/07/11 08:13:06;;;;;;;4.13;3.60;;;26.00;87.10;;;;;;5038765;28;20470;-72
2023/07/11 08:15:32;;;;;;;5.20;4.80;;;26.20;87.00;;;;;;5038465;28;20297;-73
2023/07/11 08:17:57;;;;;;;5.27;4.80;;;26.30;87.20;;;;;;5025334;28;20220;-72
2023/07/11 08:20:23;;;;;;;4.00;3.57;;;26.50;86.70;;;;;;5042941;28;20230;-72
2023/07/11 08:22:50;;;;;;;4.30;4.00;;;26.60;86.60;;;;;;5026150;28;20224;-72
2023/07/11 08:25:15;;;;;;;4.90;4.40;;;26.90;87.20;;;;;;5045310;28;20228;-72
2023/07/11 08:27:41;;;;;;;5.43;3.87;;;27.30;86.40;;;;;;5028870;28;20226;-71
2023/07/11 08:30:07;;;;;;;5.70;4.65;;;27.50;85.40;;;;;;5043310;28;20204;-72
2023/07/11 08:32:34;;;;;;;5.33;4.77;;;27.20;83.60;;;;;;5023477;28;20254;-71
2023/07/11 08:35:00;;;;;;;4.75;4.32;;;27.20;84.10;;;;;;5024493;28;20270;-71
2023/07/11 08:37:26;;;;;;;4.23;3.90;;;27.30;85.20;;;;;;5036993;28;20204;-71
2023/07/11 08:39:51;;;;;;;5.50;4.95;;;27.70;84.90;;;;;;5041426;28;20212;-71
2023/07/11 08:42:30;;;;;;;5.63;4.38;;;27.90;84.10;;;;;;5025349;28;20232;-72
2023/07/11 08:45:16;;;;;;;4.60;4.20;;;27.90;84.00;;;;;;5041075;28;20232;-73
2023/07/11 08:47:51;;;;;;;4.70;4.05;;;28.00;83.90;;;;;;5031332;28;20230;-71
2023/07/11 08:50:24;;;;;;;5.07;4.60;;;28.10;82.60;;;;;;5042887;28;20307;-72
2023/07/11 08:52:59;;;;;;;5.18;4.15;;;28.10;82.40;;;;;;5042963;28;20213;-71
2023/07/11 08:55:30;;;;;;;6.05;4.32;;;28.30;82.40;;;;;;5045661;28;20223;-73
2023/07/11 08:58:26;;;;;;;5.47;4.97;;;28.30;82.40;;;;;;5042898;28;20208;-72
2023/07/11 09:00:52;;;;;;;4.57;4.22;;;28.30;82.40;;;;;;5027746;28;20310;-71
2023/07/11 09:03:27;;;;;;;5.32;4.35;;;28.20;81.30;;;;;;5031374;28;20304;-71
2023/07/11 09:06:13;;;;;;;4.85;4.45;;;28.50;81.40;;;;;;5051010;28;20232;-72
2023/07/11 09:08:43;;;;;;;5.20;4.70;;;28.70;80.70;;;;;;5042557;28;20220;-72
2023/07/11 09:11:28;;;;;;;5.43;4.95;;;28.90;78.70;;;;;;5026836;28;20236;-72
2023/07/11 09:14:25;;;;;;;8.15;4.53;;;29.10;78.80;;;;;;5043123;28;20698;-71
2023/07/11 09:17:14;;;;;;;9.35;5.20;;;29.10;78.80;;;;;;5027132;28;20224;-72
2023/07/11 09:19:46;;;;;;;6.65;5.38;;;29.30;78.80;;;;;;5039522;28;20223;-71
2023/07/11 09:22:32;;;;;;;6.30;5.55;;;29.70;78.10;;;;;;5041344;28;20691;-71
2023/07/11 09:25:13;;;;;;;5.97;4.75;;;29.60;76.80;;;;;;5029718;28;20289;-72
2023/07/11 09:27:48;;;;;;;5.40;4.93;;;29.60;77.40;;;;;;5060327;28;20750;-72
2023/07/11 09:30:32;;;;;;;6.25;5.55;;;29.70;77.50;;;;;;5040039;28;20253;-71
2023/07/11 09:33:13;;;;;;;5.65;5.15;;;29.80;77.10;;;;;;5044489;28;20245;-73
2023/07/11 09:35:41;;;;;;;6.03;5.53;;;29.90;76.80;;;;;;5043134;28;20299;-72
2023/07/11 09:38:13;;;;;;;5.75;5.00;;;30.20;76.60;;;;;;5031818;28;20667;-72
2023/07/11 09:40:53;;;;;;;4.95;4.50;;;30.30;76.30;;;;;;5027983;28;20223;-71
2023/07/11 09:43:18;;;;;;;10.07;5.43;;;30.30;76.30;;;;;;5046359;28;20219;-72
2023/07/11 09:45:47;;;;;;;6.22;5.28;;;30.40;75.60;;;;;;5041397;28;20234;-72
2023/07/11 09:48:30;;;;;;;5.55;5.05;;;30.50;76.60;;;;;;5043941;28;20220;-72
2023/07/11 09:51:24;;;;;;;6.05;5.45;;;30.80;75.30;;;;;;5025525;28;20211;-73
2023/07/11 09:53:55;;;;;;;5.93;5.28;;;31.20;74.40;;;;;;5033779;28;20223;-71
2023/07/11 09:56:24;;;;;;;5.90;5.30;;;31.40;72.10;;;;;;5042734;28;20229;-72
2023/07/11 09:58:52;;;;;;;5.75;5.18;;;31.40;72.70;;;;;;5041110;28;20231;-72
2023/07/11 10:01:33;;;;;;;5.40;4.88;;;31.30;73.60;;;;;;5026479;28;20219;-73
2023/07/11 10:04:00;;;;;;;5.25;4.75;;;31.60;72.30;;;;;;5030266;28;20369;-72
2023/07/11 10:06:33;;;;;;;5.18;4.68;;;31.90;72.80;;;;;;5033638;28;20266;-73
2023/07/11 10:09:10;;;;;;;7.95;5.28;;;31.90;73.60;;;;;;5041509;28;20223;-72
2023/07/11 10:11:36;;;;;;;5.50;5.00;;;31.90;72.80;;;;;;5026472;28;20226;-71
2023/07/11 10:14:02;;;;;;;5.95;5.45;;;31.90;73.70;;;;;;5036724;28;20216;-72
2023/07/11 10:16:33;;;;;;;5.60;5.20;;;32.10;73.60;;;;;;5029985;28;20273;-72
2023/07/11 10:18:59;;;;;;;5.90;5.50;;;32.30;72.60;;;;;;5044807;28;20762;-72
2023/07/11 10:21:27;;;;;;;8.60;6.35;;;32.60;71.70;;;;;;5050230;28;20256;-72
2023/07/11 10:23:54;;;;;;;5.40;4.90;;;32.60;71.70;;;;;;5016189;28;20216;-73
2023/07/11 10:26:23;;;;;;;7.00;5.35;;;32.50;72.60;;;;;;5017239;28;20216;-72
2023/07/11 10:29:10;;;;;;;7.03;6.45;;;32.80;71.40;;;;;;5030634;28;20216;-72
2023/07/11 10:31:58;;;;;;;6.63;6.10;;;33.00;71.20;;;;;;5017580;28;20220;-74
2023/07/11 10:34:35;;;;;;;5.72;5.32;;;33.00;72.30;;;;;;5029728;28;20223;-72
2023/07/11 10:37:12;;;;;;;6.05;5.55;;;33.10;71.70;;;;;;5012335;28;20693;-73
2023/07/11 10:39:56;;;;;;;6.30;5.78;;;33.30;70.50;;;;;;5021144;28;20215;-72
2023/07/11 10:42:31;;;;;;;6.80;6.20;;;33.40;69.90;;;;;;5028594;28;20230;-72
2023/07/11 10:45:08;;;;;;;6.22;5.63;;;33.80;70.10;;;;;;5027388;28;20630;-73
2023/07/11 10:47:39;;;;;;;6.97;6.38;;;33.60;69.90;;;;;;5033392;28;20250;-73
2023/07/11 10:50:37;;;;;;;6.50;6.00;;;33.00;70.20;;;;;;5024949;28;20224;-73
2023/07/11 10:53:16;;;;;;;6.00;5.50;;;32.90;70.60;;;;;;5015122;28;20220;-73
2023/07/11 10:55:52;;;;;;;5.50;5.10;;;33.30;70.30;;;;;;5017535;28;20224;-72
2023/07/11 10:58:22;;;;;;;6.40;5.82;;;33.50;69.50;;;;;;5026767;28;20234;-73
2023/07/11 11:01:09;;;;;;;5.82;5.43;;;33.90;68.20;;;;;;5016894;28;20236;-73
2023/07/11 11:03:39;;;;;;;8.77;6.38;;;33.60;69.30;;;;;;5037380;28;20247;-73
2023/07/11 11:06:31;;;;;;;5.05;4.68;;;33.60;69.40;;;;;;5024356;28;20851;-73
2023/07/11 11:09:25;;;;;;;6.72;6.00;;;34.00;69.50;;;;;;5016500;28;21629;-73
2023/07/11 11:12:14;;;;;;;6.43;5.88;;;34.30;68.90;;;;;;5032564;28;20668;-73
2023/07/11 11:14:46;;;;;;;6.10;5.60;;;34.40;68.80;;;;;;5033184;28;20242;-73
2023/07/11 11:17:28;;;;;;;5.90;5.40;;;34.60;68.10;;;;;;5033481;28;20615;-74
2023/07/11 11:19:59;;;;;;;7.32;6.60;;;34.80;68.30;;;;;;5016714;28;20223;-73
2023/07/11 11:22:43;;;;;;;7.40;6.70;;;34.60;69.50;;;;;;5019863;28;20227;-71
2023/07/11 11:25:24;;;;;;;6.30;5.80;;;34.70;68.10;;;;;;5037615;28;20589;-70
2023/07/11 11:28:18;;;;;;;6.35;5.75;;;35.00;67.70;;;;;;5038043;28;20221;-71
2023/07/11 11:31:10;;;;;;;7.00;6.50;;;35.00;66.70;;;;;;5035315;28;20208;-71
2023/07/11 11:33:57;;;;;;;8.18;7.07;;;35.20;67.30;;;;;;5044747;28;20215;-71
2023/07/11 11:36:56;;;;;;;8.15;7.35;;;35.20;66.80;;;;;;5032601;28;20220;-71
2023/07/11 11:39:49;;;;;;;7.38;6.60;;;35.30;66.30;;;;;;5012208;28;20223;-73
2023/07/11 11:42:26;;;;;;;7.70;7.00;;;35.70;65.40;;;;;;5028936;28;20212;-72
2023/07/11 11:45:05;;;;;;;7.20;6.50;;;35.70;66.80;;;;;;5028909;28;20235;-71
2023/07/11 11:47:33;;;;;;;7.22;6.53;;;35.60;65.40;;;;;;5024602;28;20270;-71
2023/07/11 11:49:59;;;;;;;8.10;7.40;;;35.70;65.10;;;;;;5030610;28;20213;-72
2023/07/11 11:52:29;;;;;;;8.10;7.32;;;35.90;64.70;;;;;;5018816;28;20226;-72
2023/07/11 11:54:55;;;;;;;7.75;7.05;;;36.10;65.00;;;;;;5037766;28;20212;-72
2023/07/11 11:57:26;;;;;;;7.32;6.78;;;36.40;64.40;;;;;;5025208;28;20218;-74
2023/07/11 11:59:52;;;;;;;7.43;6.80;;;36.30;63.40;;;;;;5016569;28;20299;-72
2023/07/11 12:02:34;;;;;;;7.57;6.88;;;36.30;64.20;;;;;;5016110;28;20700;-72
2023/07/11 12:05:09;;;;;;;7.65;7.05;;;36.30;63.30;;;;;;5029463;28;20611;-72
2023/07/11 12:07:35;;;;;;;7.70;7.10;;;36.40;62.40;;;;;;5035024;28;20219;-72
2023/07/11 12:10:10;;;;;;;7.40;6.80;;;36.50;61.80;;;;;;5012704;28;20220;-72
2023/07/11 12:12:35;;;;;;;6.82;6.25;;;36.50;63.00;;;;;;5027994;28;20219;-72
2023/07/11 12:15:10;;;;;;;6.70;6.10;;;36.60;60.50;;;;;;5026465;28;20216;-74
2023/07/11 12:17:36;;;;;;;7.47;6.47;;;36.70;61.00;;;;;;5029032;28;20677;-72
2023/07/11 12:20:02;;;;;;;7.30;6.65;;;36.80;60.50;;;;;;5007337;28;20212;-72
2023/07/11 12:22:36;;;;;;;6.85;6.35;;;36.70;61.50;;;;;;5018414;28;20224;-74
2023/07/11 12:25:17;;;;;;;7.25;6.75;;;36.70;61.10;;;;;;5032017;28;20228;-72
2023/07/11 12:28:02;;;;;;;8.13;7.22;;;36.80;60.90;;;;;;5027469;28;20216;-72
2023/07/11 12:30:27;;;;;;;7.18;6.57;;;36.90;60.70;;;;;;5019505;28;20224;-72
2023/07/11 12:32:54;;;;;;;7.22;6.63;;;37.20;59.60;;;;;;5016787;28;20327;-72
2023/07/11 12:35:25;;;;;;;6.32;5.78;;;37.40;59.10;;;;;;5017644;28;20212;-72
2023/07/11 12:38:00;;;;;;;7.10;6.40;;;37.40;58.90;;;;;;5037057;28;20215;-72
2023/07/11 12:40:46;;;;;;;8.07;7.30;;;37.30;59.10;;;;;;5018015;28;20223;-73
2023/07/11 12:43:17;;;;;;;8.13;6.45;;;37.30;58.60;;;;;;5033737;28;20220;-72
2023/07/11 12:45:56;;;;;;;8.15;7.35;;;37.20;59.10;;;;;;5038863;28;20222;-71
2023/07/11 12:48:34;;;;;;;8.05;6.40;;;37.40;59.00;;;;;;5027124;28;20298;-73
2023/07/11 12:51:22;;;;;;;6.80;6.30;;;37.40;58.80;;;;;;5030619;28;20219;-72
2023/07/11 12:53:52;;;;;;;6.90;6.30;;;37.50;58.70;;;;;;5048465;28;20251;-72
2023/07/11 12:56:17;;;;;;;7.70;7.18;;;37.60;58.70;;;;;;5025773;28;20308;-72
2023/07/11 12:58:43;;;;;;;7.80;7.20;;;37.70;58.00;;;;;;5018491;28;20216;-71
2023/07/11 13:01:14;;;;;;;7.20;6.60;;;37.80;57.60;;;;;;5020657;28;20299;-73